sensor_id;sensor_type;location;lat;lon;timestamp;P1;durP1;ratioP1;P2;durP2;ratioP2
18917;SDS011;9591;52.742;13.650;2022-07-22T00:01:39;9.43;;;5.50;;
18917;SDS011;9591;52.742;13.650;2022-07-22T00:04:27;9.70;;;5.90;;
18917;SDS011;9591;52.742;13.650;2022-07-22T00:07:14;7.97;;;5.33;;
18917;SDS011;9591;52.742;13.650;2022-07-22T00:10:01;9.67;;;6.10;;
18917;SDS011;9591;52.742;13.650;2022-07-22T00:12:48;10.23;;;6.50;;
18917;SDS011;9591;52.742;13.650;2022-07-22T00:15:35;9.33;;;6.63;;
18917;SDS011;9591;52.742;13.650;2022-07-22T00:18:22;9.77;;;6.03;;
18917;SDS011;9591;52.742;13.650;2022-07-22T00:21:10;8.90;;;5.60;;
18917;SDS011;9591;52.742;13.650;2022-07-22T00:23:56;8.27;;;5.87;;
18917;SDS011;9591;52.742;13.650;2022-07-22T00:26:43;8.07;;;5.90;;
18917;SDS011;9591;52.742;13.650;2022-07-22T00:29:30;12.77;;;6.70;;
18917;SDS011;9591;52.742;13.650;2022-07-22T00:32:17;10.43;;;6.17;;
18917;SDS011;9591;52.742;13.650;2022-07-22T00:35:06;12.10;;;6.67;;
18917;SDS011;9591;52.742;13.650;2022-07-22T00:37:54;9.40;;;6.20;;
18917;SDS011;9591;52.742;13.650;2022-07-22T00:40:43;9.77;;;6.47;;
18917;SDS011;9591;52.742;13.650;2022-07-22T00:46:41;7.77;;;5.80;;
18917;SDS011;9591;52.742;13.650;2022-07-22T00:49:29;9.07;;;5.83;;
18917;SDS011;9591;52.742;13.650;2022-07-22T00:52:15;10.97;;;6.50;;
18917;SDS011;9591;52.742;13.650;2022-07-22T00:55:06;9.00;;;6.27;;
18917;SDS011;9591;52.742;13.650;2022-07-22T00:57:53;8.73;;;6.23;;
18917;SDS011;9591;52.742;13.650;2022-07-22T01:00:40;10.43;;;6.77;;
18917;SDS011;9591;52.742;13.650;2022-07-22T01:03:27;11.90;;;6.40;;
18917;SDS011;9591;52.742;13.650;2022-07-22T01:06:14;10.73;;;6.50;;
18917;SDS011;9591;52.742;13.650;2022-07-22T01:09:01;10.20;;;6.63;;
18917;SDS011;9591;52.742;13.650;2022-07-22T01:11:50;12.40;;;7.27;;
18917;SDS011;9591;52.742;13.650;2022-07-22T01:14:37;10.83;;;6.93;;
18917;SDS011;9591;52.742;13.650;2022-07-22T01:17:24;10.63;;;6.63;;
18917;SDS011;9591;52.742;13.650;2022-07-22T01:20:17;14.27;;;7.03;;
18917;SDS011;9591;52.742;13.650;2022-07-22T01:23:03;9.13;;;6.37;;
18917;SDS011;9591;52.742;13.650;2022-07-22T01:25:50;9.77;;;6.40;;
18917;SDS011;9591;52.742;13.650;2022-07-22T01:28:37;13.43;;;6.93;;
18917;SDS011;9591;52.742;13.650;2022-07-22T01:31:25;11.37;;;7.13;;
18917;SDS011;9591;52.742;13.650;2022-07-22T01:34:15;11.10;;;6.97;;
18917;SDS011;9591;52.742;13.650;2022-07-22T01:37:03;14.47;;;7.53;;
18917;SDS011;9591;52.742;13.650;2022-07-22T01:39:50;11.10;;;6.67;;
18917;SDS011;9591;52.742;13.650;2022-07-22T01:42:37;10.03;;;6.03;;
18917;SDS011;9591;52.742;13.650;2022-07-22T01:45:24;11.60;;;6.30;;
18917;SDS011;9591;52.742;13.650;2022-07-22T01:48:11;12.30;;;6.03;;
18917;SDS011;9591;52.742;13.650;2022-07-22T01:50:58;10.43;;;5.77;;
18917;SDS011;9591;52.742;13.650;2022-07-22T01:53:46;10.73;;;5.27;;
18917;SDS011;9591;52.742;13.650;2022-07-22T01:56:33;9.67;;;5.23;;
18917;SDS011;9591;52.742;13.650;2022-07-22T01:59:21;8.27;;;5.57;;
18917;SDS011;9591;52.742;13.650;2022-07-22T02:02:07;9.07;;;4.87;;
18917;SDS011;9591;52.742;13.650;2022-07-22T02:04:54;9.77;;;5.37;;
18917;SDS011;9591;52.742;13.650;2022-07-22T02:07:41;13.40;;;5.77;;
18917;SDS011;9591;52.742;13.650;2022-07-22T02:10:30;7.47;;;5.63;;
18917;SDS011;9591;52.742;13.650;2022-07-22T02:13:17;7.50;;;5.17;;
18917;SDS011;9591;52.742;13.650;2022-07-22T02:16:04;8.67;;;5.43;;
18917;SDS011;9591;52.742;13.650;2022-07-22T02:18:54;8.80;;;5.33;;
18917;SDS011;9591;52.742;13.650;2022-07-22T02:21:41;10.67;;;5.33;;
18917;SDS011;9591;52.742;13.650;2022-07-22T02:24:28;8.37;;;5.23;;
18917;SDS011;9591;52.742;13.650;2022-07-22T02:27:16;8.07;;;5.47;;
18917;SDS011;9591;52.742;13.650;2022-07-22T02:30:03;8.23;;;5.17;;
18917;SDS011;9591;52.742;13.650;2022-07-22T02:32:51;10.77;;;5.63;;
18917;SDS011;9591;52.742;13.650;2022-07-22T02:35:37;6.07;;;4.87;;
18917;SDS011;9591;52.742;13.650;2022-07-22T02:38:24;8.03;;;4.97;;
18917;SDS011;9591;52.742;13.650;2022-07-22T02:41:11;9.70;;;5.00;;
18917;SDS011;9591;52.742;13.650;2022-07-22T02:44:07;8.53;;;4.53;;
18917;SDS011;9591;52.742;13.650;2022-07-22T02:46:54;8.50;;;4.90;;
18917;SDS011;9591;52.742;13.650;2022-07-22T02:49:46;7.73;;;4.60;;
18917;SDS011;9591;52.742;13.650;2022-07-22T02:52:34;7.17;;;4.63;;
18917;SDS011;9591;52.742;13.650;2022-07-22T02:55:21;7.40;;;4.77;;
18917;SDS011;9591;52.742;13.650;2022-07-22T02:58:09;6.40;;;4.73;;
18917;SDS011;9591;52.742;13.650;2022-07-22T03:01:01;9.00;;;4.97;;
18917;SDS011;9591;52.742;13.650;2022-07-22T03:03:53;6.73;;;4.87;;
18917;SDS011;9591;52.742;13.650;2022-07-22T03:06:41;9.53;;;4.60;;
18917;SDS011;9591;52.742;13.650;2022-07-22T03:09:32;7.60;;;4.40;;
18917;SDS011;9591;52.742;13.650;2022-07-22T03:12:19;7.33;;;4.47;;
18917;SDS011;9591;52.742;13.650;2022-07-22T03:15:06;6.80;;;5.17;;
18917;SDS011;9591;52.742;13.650;2022-07-22T03:17:55;8.20;;;4.53;;
18917;SDS011;9591;52.742;13.650;2022-07-22T03:20:43;5.97;;;4.40;;
18917;SDS011;9591;52.742;13.650;2022-07-22T03:23:30;12.73;;;4.60;;
18917;SDS011;9591;52.742;13.650;2022-07-22T03:26:16;10.53;;;5.10;;
18917;SDS011;9591;52.742;13.650;2022-07-22T03:29:03;9.90;;;4.60;;
18917;SDS011;9591;52.742;13.650;2022-07-22T03:31:50;6.53;;;4.27;;
18917;SDS011;9591;52.742;13.650;2022-07-22T03:34:53;14.87;;;5.77;;
18917;SDS011;9591;52.742;13.650;2022-07-22T03:37:49;7.03;;;4.60;;
18917;SDS011;9591;52.742;13.650;2022-07-22T03:40:36;6.27;;;4.13;;
18917;SDS011;9591;52.742;13.650;2022-07-22T03:43:23;6.07;;;4.37;;
18917;SDS011;9591;52.742;13.650;2022-07-22T03:46:10;6.40;;;4.20;;
18917;SDS011;9591;52.742;13.650;2022-07-22T03:48:57;9.10;;;4.63;;
18917;SDS011;9591;52.742;13.650;2022-07-22T03:51:46;8.80;;;5.07;;
18917;SDS011;9591;52.742;13.650;2022-07-22T03:54:33;6.90;;;4.50;;
18917;SDS011;9591;52.742;13.650;2022-07-22T03:57:19;6.63;;;4.40;;
18917;SDS011;9591;52.742;13.650;2022-07-22T04:00:16;6.43;;;4.13;;
18917;SDS011;9591;52.742;13.650;2022-07-22T04:03:04;6.63;;;4.93;;
18917;SDS011;9591;52.742;13.650;2022-07-22T04:06:03;6.87;;;4.37;;
18917;SDS011;9591;52.742;13.650;2022-07-22T04:09:19;9.50;;;4.23;;
18917;SDS011;9591;52.742;13.650;2022-07-22T04:12:07;6.63;;;4.47;;
18917;SDS011;9591;52.742;13.650;2022-07-22T04:15:13;6.77;;;4.53;;
18917;SDS011;9591;52.742;13.650;2022-07-22T04:18:01;8.07;;;4.87;;
18917;SDS011;9591;52.742;13.650;2022-07-22T04:20:47;13.00;;;5.10;;
18917;SDS011;9591;52.742;13.650;2022-07-22T04:23:45;7.33;;;4.90;;
18917;SDS011;9591;52.742;13.650;2022-07-22T04:26:37;7.20;;;4.83;;
18917;SDS011;9591;52.742;13.650;2022-07-22T04:29:25;7.37;;;4.63;;
18917;SDS011;9591;52.742;13.650;2022-07-22T04:32:12;7.23;;;4.80;;
18917;SDS011;9591;52.742;13.650;2022-07-22T04:35:00;9.53;;;5.00;;
18917;SDS011;9591;52.742;13.650;2022-07-22T04:37:47;8.37;;;5.53;;
18917;SDS011;9591;52.742;13.650;2022-07-22T04:40:33;10.17;;;5.30;;
18917;SDS011;9591;52.742;13.650;2022-07-22T04:43:22;9.20;;;5.40;;
18917;SDS011;9591;52.742;13.650;2022-07-22T04:46:09;8.00;;;5.10;;
18917;SDS011;9591;52.742;13.650;2022-07-22T04:48:59;8.83;;;5.27;;
18917;SDS011;9591;52.742;13.650;2022-07-22T04:51:46;9.33;;;5.50;;
18917;SDS011;9591;52.742;13.650;2022-07-22T04:54:42;7.80;;;5.67;;
18917;SDS011;9591;52.742;13.650;2022-07-22T04:57:30;8.33;;;4.87;;
18917;SDS011;9591;52.742;13.650;2022-07-22T05:00:20;8.63;;;4.73;;
18917;SDS011;9591;52.742;13.650;2022-07-22T05:03:11;7.37;;;4.97;;
18917;SDS011;9591;52.742;13.650;2022-07-22T05:05:59;8.37;;;4.93;;
18917;SDS011;9591;52.742;13.650;2022-07-22T05:08:52;8.53;;;5.13;;
18917;SDS011;9591;52.742;13.650;2022-07-22T05:11:39;7.87;;;4.73;;
18917;SDS011;9591;52.742;13.650;2022-07-22T05:14:26;7.83;;;5.50;;
18917;SDS011;9591;52.742;13.650;2022-07-22T05:17:14;9.33;;;5.30;;
18917;SDS011;9591;52.742;13.650;2022-07-22T05:20:17;7.57;;;4.87;;
18917;SDS011;9591;52.742;13.650;2022-07-22T05:23:05;8.30;;;5.27;;
18917;SDS011;9591;52.742;13.650;2022-07-22T05:25:53;8.83;;;5.37;;
18917;SDS011;9591;52.742;13.650;2022-07-22T05:28:40;8.00;;;5.67;;
18917;SDS011;9591;52.742;13.650;2022-07-22T05:31:27;9.70;;;6.37;;
18917;SDS011;9591;52.742;13.650;2022-07-22T05:34:15;12.03;;;5.70;;
18917;SDS011;9591;52.742;13.650;2022-07-22T05:37:09;9.60;;;5.87;;
18917;SDS011;9591;52.742;13.650;2022-07-22T05:39:55;8.47;;;5.03;;
18917;SDS011;9591;52.742;13.650;2022-07-22T05:42:42;9.07;;;5.37;;
18917;SDS011;9591;52.742;13.650;2022-07-22T05:45:29;9.33;;;5.53;;
18917;SDS011;9591;52.742;13.650;2022-07-22T05:48:16;8.47;;;5.80;;
18917;SDS011;9591;52.742;13.650;2022-07-22T05:51:04;11.40;;;6.50;;
18917;SDS011;9591;52.742;13.650;2022-07-22T05:53:58;8.97;;;5.80;;
18917;SDS011;9591;52.742;13.650;2022-07-22T05:56:45;8.43;;;5.90;;
18917;SDS011;9591;52.742;13.650;2022-07-22T05:59:32;9.13;;;5.53;;
18917;SDS011;9591;52.742;13.650;2022-07-22T06:02:18;9.67;;;6.20;;
18917;SDS011;9591;52.742;13.650;2022-07-22T06:05:08;8.27;;;6.00;;
18917;SDS011;9591;52.742;13.650;2022-07-22T06:08:00;8.37;;;6.00;;
18917;SDS011;9591;52.742;13.650;2022-07-22T06:10:56;9.30;;;6.53;;
18917;SDS011;9591;52.742;13.650;2022-07-22T06:13:42;10.07;;;6.47;;
18917;SDS011;9591;52.742;13.650;2022-07-22T06:16:29;12.00;;;7.37;;
18917;SDS011;9591;52.742;13.650;2022-07-22T06:19:19;14.33;;;7.37;;
18917;SDS011;9591;52.742;13.650;2022-07-22T06:22:06;13.67;;;7.37;;
18917;SDS011;9591;52.742;13.650;2022-07-22T06:24:54;10.37;;;6.70;;
18917;SDS011;9591;52.742;13.650;2022-07-22T06:27:56;11.30;;;6.80;;
18917;SDS011;9591;52.742;13.650;2022-07-22T06:30:43;9.03;;;6.30;;
18917;SDS011;9591;52.742;13.650;2022-07-22T06:33:31;10.47;;;6.77;;
18917;SDS011;9591;52.742;13.650;2022-07-22T06:36:19;12.90;;;6.90;;
18917;SDS011;9591;52.742;13.650;2022-07-22T06:39:06;13.37;;;6.40;;
18917;SDS011;9591;52.742;13.650;2022-07-22T06:42:17;13.00;;;7.10;;
18917;SDS011;9591;52.742;13.650;2022-07-22T06:45:23;10.93;;;7.10;;
18917;SDS011;9591;52.742;13.650;2022-07-22T06:48:30;9.07;;;6.13;;
18917;SDS011;9591;52.742;13.650;2022-07-22T06:51:17;9.67;;;6.07;;
18917;SDS011;9591;52.742;13.650;2022-07-22T06:54:04;10.63;;;6.03;;
18917;SDS011;9591;52.742;13.650;2022-07-22T06:56:51;9.17;;;6.37;;
18917;SDS011;9591;52.742;13.650;2022-07-22T06:59:45;10.60;;;6.77;;
18917;SDS011;9591;52.742;13.650;2022-07-22T07:02:32;8.90;;;6.07;;
18917;SDS011;9591;52.742;13.650;2022-07-22T07:05:20;7.30;;;5.30;;
18917;SDS011;9591;52.742;13.650;2022-07-22T07:08:10;9.13;;;6.07;;
18917;SDS011;9591;52.742;13.650;2022-07-22T07:10:57;9.60;;;5.87;;
18917;SDS011;9591;52.742;13.650;2022-07-22T07:13:44;14.00;;;5.67;;
18917;SDS011;9591;52.742;13.650;2022-07-22T07:16:32;8.73;;;5.67;;
18917;SDS011;9591;52.742;13.650;2022-07-22T07:19:19;10.43;;;6.00;;
18917;SDS011;9591;52.742;13.650;2022-07-22T07:22:06;8.20;;;5.70;;
18917;SDS011;9591;52.742;13.650;2022-07-22T07:24:53;8.33;;;5.90;;
18917;SDS011;9591;52.742;13.650;2022-07-22T07:27:42;7.53;;;5.80;;
18917;SDS011;9591;52.742;13.650;2022-07-22T07:30:31;8.20;;;6.00;;
18917;SDS011;9591;52.742;13.650;2022-07-22T07:33:20;16.37;;;5.93;;
18917;SDS011;9591;52.742;13.650;2022-07-22T07:36:07;7.07;;;5.50;;
18917;SDS011;9591;52.742;13.650;2022-07-22T07:39:00;10.30;;;6.03;;
18917;SDS011;9591;52.742;13.650;2022-07-22T07:41:47;7.87;;;6.00;;
18917;SDS011;9591;52.742;13.650;2022-07-22T07:44:39;7.87;;;5.73;;
18917;SDS011;9591;52.742;13.650;2022-07-22T07:47:26;7.77;;;5.50;;
18917;SDS011;9591;52.742;13.650;2022-07-22T07:50:14;7.07;;;5.30;;
18917;SDS011;9591;52.742;13.650;2022-07-22T07:53:01;11.10;;;5.20;;
18917;SDS011;9591;52.742;13.650;2022-07-22T07:55:49;7.43;;;5.00;;
18917;SDS011;9591;52.742;13.650;2022-07-22T07:58:37;9.50;;;5.07;;
18917;SDS011;9591;52.742;13.650;2022-07-22T08:01:25;6.60;;;4.97;;
18917;SDS011;9591;52.742;13.650;2022-07-22T08:04:32;6.73;;;4.00;;
18917;SDS011;9591;52.742;13.650;2022-07-22T08:07:32;6.60;;;4.80;;
18917;SDS011;9591;52.742;13.650;2022-07-22T08:10:19;6.17;;;4.50;;
18917;SDS011;9591;52.742;13.650;2022-07-22T08:13:41;5.20;;;4.70;;
18917;SDS011;9591;52.742;13.650;2022-07-22T08:16:33;5.90;;;4.57;;
18917;SDS011;9591;52.742;13.650;2022-07-22T08:19:22;31.43;;;5.67;;
18917;SDS011;9591;52.742;13.650;2022-07-22T08:22:09;4.70;;;4.00;;
18917;SDS011;9591;52.742;13.650;2022-07-22T08:25:00;5.10;;;4.03;;
18917;SDS011;9591;52.742;13.650;2022-07-22T08:27:47;5.43;;;4.27;;
18917;SDS011;9591;52.742;13.650;2022-07-22T08:30:34;6.00;;;4.50;;
18917;SDS011;9591;52.742;13.650;2022-07-22T08:33:21;5.73;;;3.93;;
18917;SDS011;9591;52.742;13.650;2022-07-22T08:36:08;8.87;;;4.37;;
18917;SDS011;9591;52.742;13.650;2022-07-22T08:38:55;4.23;;;3.83;;
18917;SDS011;9591;52.742;13.650;2022-07-22T08:41:45;4.93;;;3.83;;
18917;SDS011;9591;52.742;13.650;2022-07-22T08:44:32;6.23;;;3.80;;
18917;SDS011;9591;52.742;13.650;2022-07-22T08:47:20;7.40;;;4.23;;
18917;SDS011;9591;52.742;13.650;2022-07-22T08:50:41;7.60;;;4.10;;
18917;SDS011;9591;52.742;13.650;2022-07-22T08:53:47;5.80;;;4.13;;
18917;SDS011;9591;52.742;13.650;2022-07-22T08:56:35;5.57;;;4.00;;
18917;SDS011;9591;52.742;13.650;2022-07-22T08:59:24;4.97;;;3.80;;
18917;SDS011;9591;52.742;13.650;2022-07-22T09:02:12;5.87;;;4.33;;
18917;SDS011;9591;52.742;13.650;2022-07-22T09:05:08;6.00;;;3.83;;
18917;SDS011;9591;52.742;13.650;2022-07-22T09:08:16;6.53;;;4.17;;
18917;SDS011;9591;52.742;13.650;2022-07-22T09:11:30;4.47;;;3.70;;
18917;SDS011;9591;52.742;13.650;2022-07-22T09:14:47;4.83;;;4.00;;
18917;SDS011;9591;52.742;13.650;2022-07-22T09:17:51;5.53;;;4.13;;
18917;SDS011;9591;52.742;13.650;2022-07-22T09:20:58;5.30;;;4.10;;
18917;SDS011;9591;52.742;13.650;2022-07-22T09:24:27;4.47;;;3.67;;
18917;SDS011;9591;52.742;13.650;2022-07-22T09:27:33;6.03;;;3.97;;
18917;SDS011;9591;52.742;13.650;2022-07-22T09:30:47;4.80;;;3.80;;
18917;SDS011;9591;52.742;13.650;2022-07-22T09:33:38;8.43;;;4.20;;
18917;SDS011;9591;52.742;13.650;2022-07-22T09:36:53;5.30;;;4.43;;
18917;SDS011;9591;52.742;13.650;2022-07-22T09:39:41;5.10;;;4.03;;
18917;SDS011;9591;52.742;13.650;2022-07-22T09:42:29;7.17;;;4.17;;
18917;SDS011;9591;52.742;13.650;2022-07-22T09:45:32;7.73;;;4.50;;
18917;SDS011;9591;52.742;13.650;2022-07-22T09:48:21;12.27;;;4.57;;
18917;SDS011;9591;52.742;13.650;2022-07-22T09:51:15;5.47;;;4.30;;
18917;SDS011;9591;52.742;13.650;2022-07-22T09:54:20;11.93;;;3.87;;
18917;SDS011;9591;52.742;13.650;2022-07-22T09:57:08;5.73;;;4.20;;
18917;SDS011;9591;52.742;13.650;2022-07-22T09:59:55;4.17;;;3.53;;
18917;SDS011;9591;52.742;13.650;2022-07-22T10:03:01;5.07;;;3.87;;
18917;SDS011;9591;52.742;13.650;2022-07-22T10:05:52;3.67;;;3.10;;
18917;SDS011;9591;52.742;13.650;2022-07-22T10:08:40;4.93;;;3.60;;
18917;SDS011;9591;52.742;13.650;2022-07-22T10:11:27;5.23;;;3.63;;
18917;SDS011;9591;52.742;13.650;2022-07-22T10:14:15;5.10;;;3.83;;
18917;SDS011;9591;52.742;13.650;2022-07-22T10:17:10;4.93;;;3.53;;
18917;SDS011;9591;52.742;13.650;2022-07-22T10:20:03;7.50;;;3.33;;
18917;SDS011;9591;52.742;13.650;2022-07-22T10:22:56;4.67;;;4.03;;
18917;SDS011;9591;52.742;13.650;2022-07-22T10:25:48;6.60;;;3.90;;
18917;SDS011;9591;52.742;13.650;2022-07-22T10:28:37;3.60;;;3.17;;
18917;SDS011;9591;52.742;13.650;2022-07-22T10:31:24;5.47;;;3.17;;
18917;SDS011;9591;52.742;13.650;2022-07-22T10:34:11;4.47;;;3.00;;
18917;SDS011;9591;52.742;13.650;2022-07-22T10:36:58;2.90;;;2.70;;
18917;SDS011;9591;52.742;13.650;2022-07-22T10:43:06;3.03;;;2.73;;
18917;SDS011;9591;52.742;13.650;2022-07-22T10:45:55;2.57;;;2.37;;
18917;SDS011;9591;52.742;13.650;2022-07-22T10:48:44;2.50;;;2.27;;
18917;SDS011;9591;52.742;13.650;2022-07-22T10:51:33;2.93;;;2.57;;
18917;SDS011;9591;52.742;13.650;2022-07-22T10:54:20;3.60;;;2.83;;
18917;SDS011;9591;52.742;13.650;2022-07-22T10:57:30;3.40;;;2.67;;
18917;SDS011;9591;52.742;13.650;2022-07-22T11:00:22;3.53;;;2.73;;
18917;SDS011;9591;52.742;13.650;2022-07-22T11:03:09;5.20;;;2.93;;
18917;SDS011;9591;52.742;13.650;2022-07-22T11:05:56;3.30;;;2.87;;
18917;SDS011;9591;52.742;13.650;2022-07-22T11:09:00;3.50;;;3.20;;
18917;SDS011;9591;52.742;13.650;2022-07-22T11:11:50;3.53;;;2.90;;
18917;SDS011;9591;52.742;13.650;2022-07-22T11:14:40;3.00;;;2.70;;
18917;SDS011;9591;52.742;13.650;2022-07-22T11:17:27;3.20;;;2.57;;
18917;SDS011;9591;52.742;13.650;2022-07-22T11:20:14;6.17;;;3.20;;
18917;SDS011;9591;52.742;13.650;2022-07-22T11:23:01;4.50;;;3.70;;
18917;SDS011;9591;52.742;13.650;2022-07-22T11:25:48;4.60;;;3.27;;
18917;SDS011;9591;52.742;13.650;2022-07-22T11:28:38;4.27;;;3.30;;
18917;SDS011;9591;52.742;13.650;2022-07-22T11:31:27;5.10;;;3.37;;
18917;SDS011;9591;52.742;13.650;2022-07-22T11:34:14;4.03;;;3.53;;
18917;SDS011;9591;52.742;13.650;2022-07-22T11:37:02;3.53;;;3.23;;
18917;SDS011;9591;52.742;13.650;2022-07-22T11:39:48;5.00;;;3.80;;
18917;SDS011;9591;52.742;13.650;2022-07-22T11:42:36;4.20;;;3.80;;
18917;SDS011;9591;52.742;13.650;2022-07-22T11:45:23;3.90;;;3.60;;
18917;SDS011;9591;52.742;13.650;2022-07-22T11:48:12;4.97;;;4.30;;
18917;SDS011;9591;52.742;13.650;2022-07-22T11:50:59;4.83;;;3.87;;
18917;SDS011;9591;52.742;13.650;2022-07-22T11:53:47;6.63;;;4.67;;
18917;SDS011;9591;52.742;13.650;2022-07-22T11:56:34;5.40;;;4.03;;
18917;SDS011;9591;52.742;13.650;2022-07-22T11:59:22;6.03;;;4.20;;
18917;SDS011;9591;52.742;13.650;2022-07-22T12:02:09;4.67;;;4.17;;
18917;SDS011;9591;52.742;13.650;2022-07-22T12:05:00;5.90;;;4.67;;
18917;SDS011;9591;52.742;13.650;2022-07-22T12:07:49;4.40;;;4.00;;
18917;SDS011;9591;52.742;13.650;2022-07-22T12:10:40;4.70;;;3.80;;
18917;SDS011;9591;52.742;13.650;2022-07-22T12:13:28;5.27;;;4.03;;
18917;SDS011;9591;52.742;13.650;2022-07-22T12:16:29;5.83;;;4.13;;
18917;SDS011;9591;52.742;13.650;2022-07-22T12:19:16;5.60;;;4.13;;
18917;SDS011;9591;52.742;13.650;2022-07-22T12:22:06;6.40;;;4.17;;
18917;SDS011;9591;52.742;13.650;2022-07-22T12:24:57;5.57;;;3.50;;
18917;SDS011;9591;52.742;13.650;2022-07-22T12:27:58;7.97;;;4.10;;
18917;SDS011;9591;52.742;13.650;2022-07-22T12:30:46;8.03;;;3.90;;
18917;SDS011;9591;52.742;13.650;2022-07-22T12:33:32;113.83;;;8.57;;
18917;SDS011;9591;52.742;13.650;2022-07-22T12:36:20;3.87;;;3.43;;
18917;SDS011;9591;52.742;13.650;2022-07-22T12:39:12;4.70;;;3.70;;
18917;SDS011;9591;52.742;13.650;2022-07-22T12:41:59;3.40;;;3.10;;
18917;SDS011;9591;52.742;13.650;2022-07-22T12:44:50;3.10;;;2.80;;
18917;SDS011;9591;52.742;13.650;2022-07-22T12:47:43;3.57;;;3.00;;
18917;SDS011;9591;52.742;13.650;2022-07-22T12:50:33;2.90;;;2.67;;
18917;SDS011;9591;52.742;13.650;2022-07-22T12:53:21;4.63;;;2.93;;
18917;SDS011;9591;52.742;13.650;2022-07-22T12:56:09;4.53;;;2.87;;
18917;SDS011;9591;52.742;13.650;2022-07-22T12:58:56;5.73;;;2.70;;
18917;SDS011;9591;52.742;13.650;2022-07-22T13:01:43;5.67;;;3.73;;
18917;SDS011;9591;52.742;13.650;2022-07-22T13:04:30;2.90;;;2.70;;
18917;SDS011;9591;52.742;13.650;2022-07-22T13:07:16;3.33;;;3.03;;
18917;SDS011;9591;52.742;13.650;2022-07-22T13:10:04;3.60;;;3.17;;
18917;SDS011;9591;52.742;13.650;2022-07-22T13:12:54;3.80;;;2.70;;
18917;SDS011;9591;52.742;13.650;2022-07-22T13:15:41;3.43;;;3.03;;
18917;SDS011;9591;52.742;13.650;2022-07-22T13:18:27;5.33;;;2.87;;
18917;SDS011;9591;52.742;13.650;2022-07-22T13:21:14;3.67;;;2.30;;
18917;SDS011;9591;52.742;13.650;2022-07-22T13:24:01;3.90;;;3.10;;
18917;SDS011;9591;52.742;13.650;2022-07-22T13:26:48;3.17;;;2.60;;
18917;SDS011;9591;52.742;13.650;2022-07-22T13:29:36;3.27;;;2.83;;
18917;SDS011;9591;52.742;13.650;2022-07-22T13:32:23;4.27;;;3.50;;
18917;SDS011;9591;52.742;13.650;2022-07-22T13:35:30;3.50;;;2.73;;
18917;SDS011;9591;52.742;13.650;2022-07-22T13:38:17;2.50;;;2.30;;
18917;SDS011;9591;52.742;13.650;2022-07-22T13:41:04;2.70;;;2.50;;
18917;SDS011;9591;52.742;13.650;2022-07-22T13:44:01;3.27;;;2.43;;
18917;SDS011;9591;52.742;13.650;2022-07-22T13:46:57;3.30;;;2.60;;
18917;SDS011;9591;52.742;13.650;2022-07-22T13:49:43;6.20;;;2.47;;
18917;SDS011;9591;52.742;13.650;2022-07-22T13:52:35;3.47;;;2.33;;
18917;SDS011;9591;52.742;13.650;2022-07-22T13:55:22;4.30;;;2.20;;
18917;SDS011;9591;52.742;13.650;2022-07-22T13:58:08;2.87;;;2.20;;
18917;SDS011;9591;52.742;13.650;2022-07-22T14:00:55;2.90;;;2.30;;
18917;SDS011;9591;52.742;13.650;2022-07-22T14:03:43;4.97;;;2.13;;
18917;SDS011;9591;52.742;13.650;2022-07-22T14:06:30;2.17;;;1.97;;
18917;SDS011;9591;52.742;13.650;2022-07-22T14:09:17;2.27;;;2.07;;
18917;SDS011;9591;52.742;13.650;2022-07-22T14:12:24;2.07;;;1.87;;
18917;SDS011;9591;52.742;13.650;2022-07-22T14:15:11;3.07;;;2.43;;
18917;SDS011;9591;52.742;13.650;2022-07-22T14:17:59;3.37;;;2.20;;
18917;SDS011;9591;52.742;13.650;2022-07-22T14:20:48;2.50;;;2.10;;
18917;SDS011;9591;52.742;13.650;2022-07-22T14:23:35;2.37;;;2.17;;
18917;SDS011;9591;52.742;13.650;2022-07-22T14:26:22;2.00;;;1.70;;
18917;SDS011;9591;52.742;13.650;2022-07-22T14:29:09;1.90;;;1.80;;
18917;SDS011;9591;52.742;13.650;2022-07-22T14:31:56;2.43;;;2.07;;
18917;SDS011;9591;52.742;13.650;2022-07-22T14:34:43;2.20;;;2.00;;
18917;SDS011;9591;52.742;13.650;2022-07-22T14:37:31;3.57;;;2.07;;
18917;SDS011;9591;52.742;13.650;2022-07-22T14:40:17;3.13;;;1.93;;
18917;SDS011;9591;52.742;13.650;2022-07-22T14:43:06;2.27;;;1.93;;
18917;SDS011;9591;52.742;13.650;2022-07-22T14:46:12;3.10;;;1.60;;
18917;SDS011;9591;52.742;13.650;2022-07-22T14:49:00;1.97;;;1.87;;
18917;SDS011;9591;52.742;13.650;2022-07-22T14:51:47;3.13;;;1.80;;
18917;SDS011;9591;52.742;13.650;2022-07-22T14:54:35;6.97;;;1.77;;
18917;SDS011;9591;52.742;13.650;2022-07-22T14:57:22;1.80;;;1.70;;
18917;SDS011;9591;52.742;13.650;2022-07-22T15:00:10;5.37;;;2.00;;
18917;SDS011;9591;52.742;13.650;2022-07-22T15:02:58;3.73;;;1.90;;
18917;SDS011;9591;52.742;13.650;2022-07-22T15:08:56;1.80;;;1.60;;
18917;SDS011;9591;52.742;13.650;2022-07-22T15:11:44;3.10;;;1.57;;
18917;SDS011;9591;52.742;13.650;2022-07-22T15:14:31;3.83;;;1.57;;
18917;SDS011;9591;52.742;13.650;2022-07-22T15:17:18;1.90;;;1.60;;
18917;SDS011;9591;52.742;13.650;2022-07-22T15:20:05;2.77;;;1.57;;
18917;SDS011;9591;52.742;13.650;2022-07-22T15:22:53;1.70;;;1.60;;
18917;SDS011;9591;52.742;13.650;2022-07-22T15:25:40;1.67;;;1.57;;
18917;SDS011;9591;52.742;13.650;2022-07-22T15:28:28;1.67;;;1.57;;
18917;SDS011;9591;52.742;13.650;2022-07-22T15:31:18;1.53;;;1.43;;
18917;SDS011;9591;52.742;13.650;2022-07-22T15:34:05;2.60;;;1.50;;
18917;SDS011;9591;52.742;13.650;2022-07-22T15:36:52;9.93;;;1.80;;
18917;SDS011;9591;52.742;13.650;2022-07-22T15:39:39;3.10;;;1.80;;
18917;SDS011;9591;52.742;13.650;2022-07-22T15:42:25;1.40;;;1.30;;
18917;SDS011;9591;52.742;13.650;2022-07-22T15:45:14;2.90;;;1.60;;
18917;SDS011;9591;52.742;13.650;2022-07-22T15:48:01;2.53;;;1.40;;
18917;SDS011;9591;52.742;13.650;2022-07-22T15:50:47;3.53;;;1.60;;
18917;SDS011;9591;52.742;13.650;2022-07-22T15:53:34;1.63;;;1.53;;
18917;SDS011;9591;52.742;13.650;2022-07-22T15:56:21;3.30;;;1.60;;
18917;SDS011;9591;52.742;13.650;2022-07-22T15:59:08;1.50;;;1.40;;
18917;SDS011;9591;52.742;13.650;2022-07-22T16:02:25;1.70;;;1.60;;
18917;SDS011;9591;52.742;13.650;2022-07-22T16:05:11;2.53;;;1.70;;
18917;SDS011;9591;52.742;13.650;2022-07-22T16:07:59;4.57;;;1.60;;
18917;SDS011;9591;52.742;13.650;2022-07-22T16:10:46;1.53;;;1.43;;
18917;SDS011;9591;52.742;13.650;2022-07-22T16:13:32;1.40;;;1.30;;
18917;SDS011;9591;52.742;13.650;2022-07-22T16:16:19;2.30;;;1.63;;
18917;SDS011;9591;52.742;13.650;2022-07-22T16:19:07;2.00;;;1.77;;
18917;SDS011;9591;52.742;13.650;2022-07-22T16:21:54;2.40;;;1.73;;
18917;SDS011;9591;52.742;13.650;2022-07-22T16:24:41;3.53;;;1.90;;
18917;SDS011;9591;52.742;13.650;2022-07-22T16:27:28;1.63;;;1.53;;
18917;SDS011;9591;52.742;13.650;2022-07-22T16:30:14;1.80;;;1.70;;
18917;SDS011;9591;52.742;13.650;2022-07-22T16:33:01;3.03;;;1.70;;
18917;SDS011;9591;52.742;13.650;2022-07-22T16:35:49;3.67;;;1.63;;
18917;SDS011;9591;52.742;13.650;2022-07-22T16:38:36;2.23;;;1.90;;
18917;SDS011;9591;52.742;13.650;2022-07-22T16:41:23;1.53;;;1.43;;
18917;SDS011;9591;52.742;13.650;2022-07-22T16:44:11;2.00;;;1.63;;
18917;SDS011;9591;52.742;13.650;2022-07-22T16:46:57;1.70;;;1.40;;
18917;SDS011;9591;52.742;13.650;2022-07-22T16:49:44;1.70;;;1.60;;
18917;SDS011;9591;52.742;13.650;2022-07-22T16:52:32;1.40;;;1.30;;
18917;SDS011;9591;52.742;13.650;2022-07-22T16:55:19;2.67;;;1.40;;
18917;SDS011;9591;52.742;13.650;2022-07-22T16:58:06;2.30;;;1.67;;
18917;SDS011;9591;52.742;13.650;2022-07-22T17:00:53;2.10;;;1.90;;
18917;SDS011;9591;52.742;13.650;2022-07-22T17:03:39;1.53;;;1.43;;
18917;SDS011;9591;52.742;13.650;2022-07-22T17:06:26;5.97;;;2.00;;
18917;SDS011;9591;52.742;13.650;2022-07-22T17:09:14;1.77;;;1.57;;
18917;SDS011;9591;52.742;13.650;2022-07-22T17:12:02;2.10;;;1.70;;